sensor_id;sensor_type;location;lat;lon;timestamp;pressure;altitude;pressure_sealevel;temperature;humidity
76519;BME280;67029;51.054;13.798;2023-12-07T00:01:40;100518.22;;;6.26;61.73
76519;BME280;67029;51.054;13.798;2023-12-07T00:04:10;100519.07;;;6.25;61.73
76519;BME280;67029;51.054;13.798;2023-12-07T00:06:40;100516.20;;;6.24;61.71
76519;BME280;67029;51.054;13.798;2023-12-07T00:09:10;100521.95;;;6.20;61.73
76519;BME280;67029;51.054;13.798;2023-12-07T00:11:40;100525.07;;;6.19;61.83
76519;BME280;67029;51.054;13.798;2023-12-07T00:16:41;100526.13;;;6.18;61.82
76519;BME280;67029;51.054;13.798;2023-12-07T00:19:11;100527.62;;;6.16;61.82
76519;BME280;67029;51.054;13.798;2023-12-07T00:21:41;100530.63;;;6.14;61.87
76519;BME280;67029;51.054;13.798;2023-12-07T00:24:11;100533.91;;;6.13;61.94
76519;BME280;67029;51.054;13.798;2023-12-07T00:26:41;100532.09;;;6.17;61.86
76519;BME280;67029;51.054;13.798;2023-12-07T00:29:11;100536.20;;;6.17;61.83
76519;BME280;67029;51.054;13.798;2023-12-07T00:31:41;100535.17;;;6.16;61.80
76519;BME280;67029;51.054;13.798;2023-12-07T00:36:42;100530.20;;;6.21;61.76
76519;BME280;67029;51.054;13.798;2023-12-07T00:39:11;100531.66;;;6.25;61.66
76519;BME280;67029;51.054;13.798;2023-12-07T00:41:42;100530.15;;;6.25;61.57
76519;BME280;67029;51.054;13.798;2023-12-07T00:44:12;100523.73;;;6.22;61.62
76519;BME280;67029;51.054;13.798;2023-12-07T00:46:42;100521.58;;;6.23;61.68
76519;BME280;67029;51.054;13.798;2023-12-07T00:49:12;100524.42;;;6.24;61.64
76519;BME280;67029;51.054;13.798;2023-12-07T00:51:42;100519.65;;;6.26;61.63
76519;BME280;67029;51.054;13.798;2023-12-07T00:56:42;100523.78;;;6.27;61.57
76519;BME280;67029;51.054;13.798;2023-12-07T00:59:12;100528.14;;;6.28;61.61
76519;BME280;67029;51.054;13.798;2023-12-07T01:01:42;100531.02;;;6.29;61.60
76519;BME280;67029;51.054;13.798;2023-12-07T01:06:42;100533.99;;;6.36;61.60
76519;BME280;67029;51.054;13.798;2023-12-07T01:09:12;100540.39;;;6.38;61.56
76519;BME280;67029;51.054;13.798;2023-12-07T01:11:42;100541.06;;;6.37;61.53
76519;BME280;67029;51.054;13.798;2023-12-07T01:14:12;100545.00;;;6.38;61.52
76519;BME280;67029;51.054;13.798;2023-12-07T01:16:43;100548.62;;;6.40;61.47
76519;BME280;67029;51.054;13.798;2023-12-07T01:19:13;100548.62;;;6.40;61.46
76519;BME280;67029;51.054;13.798;2023-12-07T01:21:43;100552.23;;;6.40;61.44
76519;BME280;67029;51.054;13.798;2023-12-07T01:26:43;100555.95;;;6.44;61.48
76519;BME280;67029;51.054;13.798;2023-12-07T01:29:13;100553.94;;;6.44;61.48
76519;BME280;67029;51.054;13.798;2023-12-07T01:31:43;100555.70;;;6.44;61.44
76519;BME280;67029;51.054;13.798;2023-12-07T01:36:43;100564.62;;;6.48;61.47
76519;BME280;67029;51.054;13.798;2023-12-07T01:39:13;100566.72;;;6.49;61.42
76519;BME280;67029;51.054;13.798;2023-12-07T01:41:43;100568.14;;;6.47;61.32
76519;BME280;67029;51.054;13.798;2023-12-07T01:44:13;100572.35;;;6.35;61.47
76519;BME280;67029;51.054;13.798;2023-12-07T01:46:43;100573.97;;;6.30;61.76
76519;BME280;67029;51.054;13.798;2023-12-07T01:49:13;100575.66;;;6.29;61.85
76519;BME280;67029;51.054;13.798;2023-12-07T01:51:43;100574.34;;;6.24;61.83
76519;BME280;67029;51.054;13.798;2023-12-07T01:56:44;100576.05;;;6.25;62.12
76519;BME280;67029;51.054;13.798;2023-12-07T01:59:14;100579.39;;;6.26;62.04
76519;BME280;67029;51.054;13.798;2023-12-07T02:01:45;100582.50;;;6.26;62.12
76519;BME280;67029;51.054;13.798;2023-12-07T02:04:15;100580.45;;;6.29;62.11
76519;BME280;67029;51.054;13.798;2023-12-07T02:06:45;100580.55;;;6.31;62.05
76519;BME280;67029;51.054;13.798;2023-12-07T02:09:15;100584.26;;;6.33;62.03
76519;BME280;67029;51.054;13.798;2023-12-07T02:11:45;100584.77;;;6.36;62.03
76519;BME280;67029;51.054;13.798;2023-12-07T02:14:15;100586.11;;;6.36;61.98
76519;BME280;67029;51.054;13.798;2023-12-07T02:17:14;100587.62;;;6.36;61.98
76519;BME280;67029;51.054;13.798;2023-12-07T02:22:04;100587.98;;;6.37;62.03
76519;BME280;67029;51.054;13.798;2023-12-07T02:24:21;100587.80;;;6.38;62.02
76519;BME280;67029;51.054;13.798;2023-12-07T02:26:47;100591.41;;;6.38;62.03
76519;BME280;67029;51.054;13.798;2023-12-07T02:29:17;100596.19;;;6.39;62.07
76519;BME280;67029;51.054;13.798;2023-12-07T02:31:47;100595.17;;;6.37;62.05
76519;BME280;67029;51.054;13.798;2023-12-07T02:34:17;100595.84;;;6.36;62.06
76519;BME280;67029;51.054;13.798;2023-12-07T02:36:49;100595.78;;;6.38;62.06
76519;BME280;67029;51.054;13.798;2023-12-07T02:39:18;100598.38;;;6.38;62.05
76519;BME280;67029;51.054;13.798;2023-12-07T02:41:49;100598.66;;;6.39;62.07
76519;BME280;67029;51.054;13.798;2023-12-07T02:44:19;100605.53;;;6.40;62.01
76519;BME280;67029;51.054;13.798;2023-12-07T02:46:49;100605.55;;;6.32;62.01
76519;BME280;67029;51.054;13.798;2023-12-07T02:49:19;100606.28;;;6.31;62.20
76519;BME280;67029;51.054;13.798;2023-12-07T02:51:49;100609.23;;;6.32;62.16
76519;BME280;67029;51.054;13.798;2023-12-07T02:54:19;100611.11;;;6.34;62.15
76519;BME280;67029;51.054;13.798;2023-12-07T02:56:49;100616.16;;;6.35;62.10
76519;BME280;67029;51.054;13.798;2023-12-07T02:59:19;100616.41;;;6.36;62.11
76519;BME280;67029;51.054;13.798;2023-12-07T03:01:49;100615.56;;;6.37;62.07
76519;BME280;67029;51.054;13.798;2023-12-07T03:04:20;100615.73;;;6.36;62.07
76519;BME280;67029;51.054;13.798;2023-12-07T03:06:49;100613.75;;;6.38;62.07
76519;BME280;67029;51.054;13.798;2023-12-07T03:09:20;100618.10;;;6.39;62.07
76519;BME280;67029;51.054;13.798;2023-12-07T03:11:50;100626.02;;;6.40;62.04
76519;BME280;67029;51.054;13.798;2023-12-07T03:14:20;100627.52;;;6.41;62.05
76519;BME280;67029;51.054;13.798;2023-12-07T03:16:50;100629.89;;;6.42;62.03
76519;BME280;67029;51.054;13.798;2023-12-07T03:19:20;100631.23;;;6.42;62.01
76519;BME280;67029;51.054;13.798;2023-12-07T03:21:50;100629.81;;;6.42;62.02
76519;BME280;67029;51.054;13.798;2023-12-07T03:24:20;100633.61;;;6.44;62.05
76519;BME280;67029;51.054;13.798;2023-12-07T03:26:50;100633.09;;;6.44;61.99
76519;BME280;67029;51.054;13.798;2023-12-07T03:29:20;100631.59;;;6.44;62.01
76519;BME280;67029;51.054;13.798;2023-12-07T03:31:50;100635.62;;;6.43;61.98
76519;BME280;67029;51.054;13.798;2023-12-07T03:34:20;100637.05;;;6.44;62.00
76519;BME280;67029;51.054;13.798;2023-12-07T03:36:50;100634.19;;;6.44;62.00
76519;BME280;67029;51.054;13.798;2023-12-07T03:39:20;100633.19;;;6.44;61.99
76519;BME280;67029;51.054;13.798;2023-12-07T03:41:50;100633.44;;;6.44;62.00
76519;BME280;67029;51.054;13.798;2023-12-07T03:44:20;100634.44;;;6.45;61.99
76519;BME280;67029;51.054;13.798;2023-12-07T03:46:50;100632.36;;;6.47;61.98
76519;BME280;67029;51.054;13.798;2023-12-07T03:49:20;100634.39;;;6.48;61.97
76519;BME280;67029;51.054;13.798;2023-12-07T03:51:50;100640.94;;;6.48;61.96
76519;BME280;67029;51.054;13.798;2023-12-07T03:54:20;100638.16;;;6.46;61.95
76519;BME280;67029;51.054;13.798;2023-12-07T03:56:50;100639.12;;;6.42;61.96
76519;BME280;67029;51.054;13.798;2023-12-07T03:59:20;100645.42;;;6.42;62.04
76519;BME280;67029;51.054;13.798;2023-12-07T04:01:50;100644.69;;;6.44;62.05
76519;BME280;67029;51.054;13.798;2023-12-07T04:04:20;100643.42;;;6.45;62.04
76519;BME280;67029;51.054;13.798;2023-12-07T04:06:50;100641.20;;;6.47;62.03
76519;BME280;67029;51.054;13.798;2023-12-07T04:09:20;100640.50;;;6.47;61.97
76519;BME280;67029;51.054;13.798;2023-12-07T04:11:50;100642.87;;;6.48;62.00
76519;BME280;67029;51.054;13.798;2023-12-07T04:14:20;100641.38;;;6.50;61.97
76519;BME280;67029;51.054;13.798;2023-12-07T04:16:50;100643.83;;;6.52;61.95
76519;BME280;67029;51.054;13.798;2023-12-07T04:19:20;100643.16;;;6.52;61.95
76519;BME280;67029;51.054;13.798;2023-12-07T04:21:50;100646.50;;;6.53;61.95
76519;BME280;67029;51.054;13.798;2023-12-07T04:24:20;100648.05;;;6.54;61.95
76519;BME280;67029;51.054;13.798;2023-12-07T04:26:51;100650.56;;;6.54;61.96
76519;BME280;67029;51.054;13.798;2023-12-07T04:29:20;100649.95;;;6.53;61.96
76519;BME280;67029;51.054;13.798;2023-12-07T04:31:50;100658.38;;;6.54;61.99
76519;BME280;67029;51.054;13.798;2023-12-07T04:34:20;100661.31;;;6.54;61.99
76519;BME280;67029;51.054;13.798;2023-12-07T04:36:50;100666.89;;;6.51;62.00
76519;BME280;67029;51.054;13.798;2023-12-07T04:39:21;100673.52;;;6.48;62.08
76519;BME280;67029;51.054;13.798;2023-12-07T04:41:51;100675.87;;;6.48;62.13
76519;BME280;67029;51.054;13.798;2023-12-07T04:44:21;100677.54;;;6.48;62.13
76519;BME280;67029;51.054;13.798;2023-12-07T04:46:51;100682.59;;;6.50;62.12
76519;BME280;67029;51.054;13.798;2023-12-07T04:49:21;100683.71;;;6.52;62.11
76519;BME280;67029;51.054;13.798;2023-12-07T04:51:51;100686.96;;;6.50;62.08
76519;BME280;67029;51.054;13.798;2023-12-07T04:54:21;100687.80;;;6.51;62.12
76519;BME280;67029;51.054;13.798;2023-12-07T04:56:51;100686.45;;;6.51;62.10
76519;BME280;67029;51.054;13.798;2023-12-07T04:59:21;100684.55;;;6.52;62.14
76519;BME280;67029;51.054;13.798;2023-12-07T05:01:51;100689.83;;;6.53;62.12
76519;BME280;67029;51.054;13.798;2023-12-07T05:04:21;100689.69;;;6.55;62.11
76519;BME280;67029;51.054;13.798;2023-12-07T05:06:51;100692.70;;;6.55;62.07
76519;BME280;67029;51.054;13.798;2023-12-07T05:09:21;100696.59;;;6.56;62.09
76519;BME280;67029;51.054;13.798;2023-12-07T05:11:51;100694.33;;;6.56;62.10
76519;BME280;67029;51.054;13.798;2023-12-07T05:14:21;100696.56;;;6.55;62.12
76519;BME280;67029;51.054;13.798;2023-12-07T05:16:51;100697.00;;;6.57;62.16
76519;BME280;67029;51.054;13.798;2023-12-07T05:19:22;100695.27;;;6.58;62.15
76519;BME280;67029;51.054;13.798;2023-12-07T05:21:52;100700.38;;;6.59;62.14
76519;BME280;67029;51.054;13.798;2023-12-07T05:26:53;100695.16;;;6.57;62.18
76519;BME280;67029;51.054;13.798;2023-12-07T05:29:22;100701.36;;;6.58;62.15
76519;BME280;67029;51.054;13.798;2023-12-07T05:31:52;100699.17;;;6.55;62.12
76519;BME280;67029;51.054;13.798;2023-12-07T05:34:23;100704.93;;;6.50;62.15
76519;BME280;67029;51.054;13.798;2023-12-07T05:36:53;100708.41;;;6.44;62.32
76519;BME280;67029;51.054;13.798;2023-12-07T05:39:23;100707.33;;;6.38;62.36
76519;BME280;67029;51.054;13.798;2023-12-07T05:41:53;100712.14;;;6.39;62.50
76519;BME280;67029;51.054;13.798;2023-12-07T05:44:23;100717.61;;;6.42;62.46
76519;BME280;67029;51.054;13.798;2023-12-07T05:46:53;100725.69;;;6.45;62.45
76519;BME280;67029;51.054;13.798;2023-12-07T05:49:23;100719.74;;;6.47;62.42
76519;BME280;67029;51.054;13.798;2023-12-07T05:51:53;100719.70;;;6.50;62.36
76519;BME280;67029;51.054;13.798;2023-12-07T05:54:23;100717.20;;;6.52;62.33
76519;BME280;67029;51.054;13.798;2023-12-07T05:56:53;100717.20;;;6.53;62.31
76519;BME280;67029;51.054;13.798;2023-12-07T05:59:23;100714.95;;;6.55;62.29
76519;BME280;67029;51.054;13.798;2023-12-07T06:01:53;100715.62;;;6.55;62.26
76519;BME280;67029;51.054;13.798;2023-12-07T06:04:23;100712.44;;;6.55;62.27
76519;BME280;67029;51.054;13.798;2023-12-07T06:06:53;100716.72;;;6.55;62.28
76519;BME280;67029;51.054;13.798;2023-12-07T06:09:23;100715.38;;;6.55;62.27
76519;BME280;67029;51.054;13.798;2023-12-07T06:11:53;100714.95;;;6.55;62.27
76519;BME280;67029;51.054;13.798;2023-12-07T06:14:23;100720.34;;;6.57;62.28
76519;BME280;67029;51.054;13.798;2023-12-07T06:16:53;100722.12;;;6.59;62.30
76519;BME280;67029;51.054;13.798;2023-12-07T06:19:23;100729.12;;;6.61;62.25
76519;BME280;67029;51.054;13.798;2023-12-07T06:21:53;100734.25;;;6.63;62.20
76519;BME280;67029;51.054;13.798;2023-12-07T06:24:23;100736.27;;;6.64;62.18
76519;BME280;67029;51.054;13.798;2023-12-07T06:26:53;100734.86;;;6.65;62.15
76519;BME280;67029;51.054;13.798;2023-12-07T06:29:23;100737.55;;;6.66;62.14
76519;BME280;67029;51.054;13.798;2023-12-07T06:31:53;100741.25;;;6.64;62.11
76519;BME280;67029;51.054;13.798;2023-12-07T06:34:23;100741.67;;;6.64;62.17
76519;BME280;67029;51.054;13.798;2023-12-07T06:36:53;100740.16;;;6.64;62.18
76519;BME280;67029;51.054;13.798;2023-12-07T06:39:23;100739.71;;;6.64;62.20
76519;BME280;67029;51.054;13.798;2023-12-07T06:41:53;100742.00;;;6.65;62.21
76519;BME280;67029;51.054;13.798;2023-12-07T06:44:23;100747.88;;;6.65;62.23
76519;BME280;67029;51.054;13.798;2023-12-07T06:46:53;100747.64;;;6.67;62.22
76519;BME280;67029;51.054;13.798;2023-12-07T06:49:23;100749.94;;;6.69;62.20
76519;BME280;67029;51.054;13.798;2023-12-07T06:51:53;100749.43;;;6.69;62.15
76519;BME280;67029;51.054;13.798;2023-12-07T06:54:23;100749.09;;;6.69;62.18
76519;BME280;67029;51.054;13.798;2023-12-07T06:56:53;100750.56;;;6.73;62.18
76519;BME280;67029;51.054;13.798;2023-12-07T06:59:23;100751.84;;;6.74;62.17
76519;BME280;67029;51.054;13.798;2023-12-07T07:01:54;100761.59;;;6.78;62.32
76519;BME280;67029;51.054;13.798;2023-12-07T07:04:24;100760.61;;;6.91;62.00
76519;BME280;67029;51.054;13.798;2023-12-07T07:06:54;100762.08;;;6.94;61.79
76519;BME280;67029;51.054;13.798;2023-12-07T07:09:24;100763.59;;;6.94;61.79
76519;BME280;67029;51.054;13.798;2023-12-07T07:11:54;100762.30;;;6.92;61.76
76519;BME280;67029;51.054;13.798;2023-12-07T07:14:24;100762.51;;;6.86;61.90
76519;BME280;67029;51.054;13.798;2023-12-07T07:16:54;100762.51;;;6.86;61.98
76519;BME280;67029;51.054;13.798;2023-12-07T07:19:24;100767.81;;;6.87;61.99
76519;BME280;67029;51.054;13.798;2023-12-07T07:21:54;100759.31;;;6.86;61.98
76519;BME280;67029;51.054;13.798;2023-12-07T07:24:24;100769.20;;;6.91;62.03
76519;BME280;67029;51.054;13.798;2023-12-07T07:26:55;100762.39;;;7.02;62.01
76519;BME280;67029;51.054;13.798;2023-12-07T07:29:24;100763.55;;;7.13;61.63
76519;BME280;67029;51.054;13.798;2023-12-07T07:31:55;100763.10;;;7.19;61.53
76519;BME280;67029;51.054;13.798;2023-12-07T07:34:28;100765.76;;;7.24;61.41
76519;BME280;67029;51.054;13.798;2023-12-07T07:36:56;100763.62;;;7.33;61.22
76519;BME280;67029;51.054;13.798;2023-12-07T07:39:26;100764.27;;;7.32;61.10
76519;BME280;67029;51.054;13.798;2023-12-07T07:41:56;100763.07;;;7.28;61.14
76519;BME280;67029;51.054;13.798;2023-12-07T07:44:26;100762.95;;;7.20;61.15
76519;BME280;67029;51.054;13.798;2023-12-07T07:46:58;100760.48;;;7.07;61.38
76519;BME280;67029;51.054;13.798;2023-12-07T07:49:27;100761.16;;;7.17;61.69
76519;BME280;67029;51.054;13.798;2023-12-07T07:51:57;100761.77;;;7.46;61.28
76519;BME280;67029;51.054;13.798;2023-12-07T07:54:27;100763.14;;;7.64;60.36
76519;BME280;67029;51.054;13.798;2023-12-07T07:56:57;100763.05;;;7.62;60.20
76519;BME280;67029;51.054;13.798;2023-12-07T07:59:27;100766.97;;;7.58;60.26
76519;BME280;67029;51.054;13.798;2023-12-07T08:01:57;100768.34;;;7.47;60.30
76519;BME280;67029;51.054;13.798;2023-12-07T08:04:27;100768.02;;;7.38;60.50
76519;BME280;67029;51.054;13.798;2023-12-07T08:06:57;100769.15;;;7.32;60.69
76519;BME280;67029;51.054;13.798;2023-12-07T08:09:28;100766.85;;;7.28;60.77
76519;BME280;67029;51.054;13.798;2023-12-07T08:11:57;100771.80;;;7.25;60.85
76519;BME280;67029;51.054;13.798;2023-12-07T08:14:27;100770.49;;;7.16;60.98
76519;BME280;67029;51.054;13.798;2023-12-07T08:16:57;100770.47;;;7.15;61.13
76519;BME280;67029;51.054;13.798;2023-12-07T08:19:27;100766.38;;;7.16;61.15
76519;BME280;67029;51.054;13.798;2023-12-07T08:21:57;100771.27;;;7.20;61.15
76519;BME280;67029;51.054;13.798;2023-12-07T08:24:27;100774.38;;;7.22;61.14
76519;BME280;67029;51.054;13.798;2023-12-07T08:26:58;100781.14;;;7.25;61.11
76519;BME280;67029;51.054;13.798;2023-12-07T08:29:27;100779.34;;;7.24;61.10
76519;BME280;67029;51.054;13.798;2023-12-07T08:31:57;100780.46;;;7.25;61.11
76519;BME280;67029;51.054;13.798;2023-12-07T08:34:29;100777.45;;;7.27;61.09
76519;BME280;67029;51.054;13.798;2023-12-07T08:36:58;100779.38;;;7.27;61.10
76519;BME280;67029;51.054;13.798;2023-12-07T08:39:28;100783.34;;;7.29;61.09
76519;BME280;67029;51.054;13.798;2023-12-07T08:41:58;100784.78;;;7.32;61.06
76519;BME280;67029;51.054;13.798;2023-12-07T08:44:28;100784.07;;;7.35;61.03
76519;BME280;67029;51.054;13.798;2023-12-07T08:46:58;100786.67;;;7.35;60.95
76519;BME280;67029;51.054;13.798;2023-12-07T08:49:28;100790.27;;;7.34;60.98
76519;BME280;67029;51.054;13.798;2023-12-07T08:51:58;100791.49;;;7.39;60.61
76519;BME280;67029;51.054;13.798;2023-12-07T08:54:28;100796.59;;;7.35;60.70
76519;BME280;67029;51.054;13.798;2023-12-07T08:56:58;100800.11;;;7.33;60.82
76519;BME280;67029;51.054;13.798;2023-12-07T08:59:29;100809.77;;;7.20;60.61
76519;BME280;67029;51.054;13.798;2023-12-07T09:01:59;100807.78;;;7.15;60.98
76519;BME280;67029;51.054;13.798;2023-12-07T09:04:29;100809.82;;;7.16;61.01
76519;BME280;67029;51.054;13.798;2023-12-07T09:07:00;100807.23;;;7.09;61.18
76519;BME280;67029;51.054;13.798;2023-12-07T09:09:30;100811.45;;;7.10;61.15
76519;BME280;67029;51.054;13.798;2023-12-07T09:12:00;100813.58;;;7.15;60.98
76519;BME280;67029;51.054;13.798;2023-12-07T09:14:30;100814.92;;;7.15;61.11
76519;BME280;67029;51.054;13.798;2023-12-07T09:17:00;100815.30;;;7.11;61.17
76519;BME280;67029;51.054;13.798;2023-12-07T09:19:30;100811.59;;;7.08;61.26
76519;BME280;67029;51.054;13.798;2023-12-07T09:22:00;100813.66;;;7.04;61.30
76519;BME280;67029;51.054;13.798;2023-12-07T09:24:30;100815.15;;;7.03;61.27
76519;BME280;67029;51.054;13.798;2023-12-07T09:27:00;100817.64;;;7.09;61.00
76519;BME280;67029;51.054;13.798;2023-12-07T09:29:30;100816.30;;;7.09;61.14
76519;BME280;67029;51.054;13.798;2023-12-07T09:32:00;100818.12;;;7.15;61.07
76519;BME280;67029;51.054;13.798;2023-12-07T09:34:30;100816.57;;;7.21;61.02
76519;BME280;67029;51.054;13.798;2023-12-07T09:37:07;100819.47;;;7.25;60.95
76519;BME280;67029;51.054;13.798;2023-12-07T09:39:30;100818.47;;;7.27;60.87
76519;BME280;67029;51.054;13.798;2023-12-07T09:42:01;100820.09;;;7.28;60.90
76519;BME280;67029;51.054;13.798;2023-12-07T09:44:31;100822.52;;;7.29;60.78
76519;BME280;67029;51.054;13.798;2023-12-07T09:47:00;100824.76;;;7.35;60.62
76519;BME280;67029;51.054;13.798;2023-12-07T09:49:30;100819.14;;;7.37;60.58
76519;BME280;67029;51.054;13.798;2023-12-07T09:52:02;100823.67;;;7.38;60.64
76519;BME280;67029;51.054;13.798;2023-12-07T09:54:31;100819.31;;;7.40;60.42
76519;BME280;67029;51.054;13.798;2023-12-07T09:57:01;100817.80;;;7.40;60.48
76519;BME280;67029;51.054;13.798;2023-12-07T09:59:31;100810.52;;;7.44;60.32
76519;BME280;67029;51.054;13.798;2023-12-07T10:02:02;100808.84;;;7.43;60.26
76519;BME280;67029;51.054;13.798;2023-12-07T10:04:32;100810.70;;;7.46;60.18
76519;BME280;67029;51.054;13.798;2023-12-07T10:07:02;100815.95;;;7.53;59.40
76519;BME280;67029;51.054;13.798;2023-12-07T10:09:32;100815.78;;;7.49;59.67
76519;BME280;67029;51.054;13.798;2023-12-07T10:12:05;100813.16;;;7.48;59.88
76519;BME280;67029;51.054;13.798;2023-12-07T10:14:33;100813.02;;;7.52;59.67
76519;BME280;67029;51.054;13.798;2023-12-07T10:17:03;100813.68;;;7.53;59.63
76519;BME280;67029;51.054;13.798;2023-12-07T10:19:33;100814.42;;;7.50;59.74
76519;BME280;67029;51.054;13.798;2023-12-07T10:22:14;100815.38;;;7.52;59.55
76519;BME280;67029;51.054;13.798;2023-12-07T10:24:35;100815.28;;;7.53;59.62
76519;BME280;67029;51.054;13.798;2023-12-07T10:27:05;100812.45;;;7.56;59.61
76519;BME280;67029;51.054;13.798;2023-12-07T10:29:35;100808.34;;;7.58;59.42
76519;BME280;67029;51.054;13.798;2023-12-07T10:32:05;100806.80;;;7.52;58.94
76519;BME280;67029;51.054;13.798;2023-12-07T10:34:36;100800.49;;;7.39;59.54
76519;BME280;67029;51.054;13.798;2023-12-07T10:37:06;100803.80;;;7.31;59.52
76519;BME280;67029;51.054;13.798;2023-12-07T10:39:36;100803.02;;;7.29;59.66
76519;BME280;67029;51.054;13.798;2023-12-07T10:42:09;100801.64;;;7.26;59.83
76519;BME280;67029;51.054;13.798;2023-12-07T10:44:41;100804.84;;;7.25;59.99
76519;BME280;67029;51.054;13.798;2023-12-07T10:47:07;100802.32;;;7.28;59.93
76519;BME280;67029;51.054;13.798;2023-12-07T10:49:40;100800.20;;;7.23;59.93
76519;BME280;67029;51.054;13.798;2023-12-07T10:52:12;100803.53;;;7.19;60.16
76519;BME280;67029;51.054;13.798;2023-12-07T10:55:05;100802.86;;;7.22;60.23
76519;BME280;67029;51.054;13.798;2023-12-07T10:57:13;100801.20;;;7.23;60.12
76519;BME280;67029;51.054;13.798;2023-12-07T10:59:43;100798.30;;;7.18;60.20
76519;BME280;67029;51.054;13.798;2023-12-07T11:02:13;100804.61;;;7.09;60.29
76519;BME280;67029;51.054;13.798;2023-12-07T11:04:44;100809.89;;;6.96;60.59
76519;BME280;67029;51.054;13.798;2023-12-07T11:07:16;100813.28;;;7.01;60.63
76519;BME280;67029;51.054;13.798;2023-12-07T11:09:50;100808.82;;;6.98;60.63
76519;BME280;67029;51.054;13.798;2023-12-07T11:14:48;100812.14;;;6.94;60.78
76519;BME280;67029;51.054;13.798;2023-12-07T11:17:15;100807.59;;;7.03;60.61
76519;BME280;67029;51.054;13.798;2023-12-07T11:19:48;100812.75;;;7.07;60.35
76519;BME280;67029;51.054;13.798;2023-12-07T11:22:16;100811.52;;;7.01;60.40
76519;BME280;67029;51.054;13.798;2023-12-07T11:24:57;100804.98;;;6.93;60.52
76519;BME280;67029;51.054;13.798;2023-12-07T11:27:17;100804.67;;;6.87;60.69
76519;BME280;67029;51.054;13.798;2023-12-07T11:29:47;100803.64;;;6.85;60.84
76519;BME280;67029;51.054;13.798;2023-12-07T11:32:17;100807.98;;;6.91;60.74
76519;BME280;67029;51.054;13.798;2023-12-07T11:34:47;100806.67;;;6.91;60.65
76519;BME280;67029;51.054;13.798;2023-12-07T11:37:17;100799.67;;;6.91;60.73
76519;BME280;67029;51.054;13.798;2023-12-07T11:39:47;100799.67;;;6.82;60.77
76519;BME280;67029;51.054;13.798;2023-12-07T11:42:19;100801.92;;;6.80;60.88
76519;BME280;67029;51.054;13.798;2023-12-07T11:44:48;100798.10;;;6.84;60.92
76519;BME280;67029;51.054;13.798;2023-12-07T11:47:20;100797.03;;;6.85;60.87
76519;BME280;67029;51.054;13.798;2023-12-07T11:49:48;100796.81;;;6.79;61.02
76519;BME280;67029;51.054;13.798;2023-12-07T11:52:19;100793.92;;;6.86;61.02
76519;BME280;67029;51.054;13.798;2023-12-07T11:54:50;100794.23;;;6.92;60.91
76519;BME280;67029;51.054;13.798;2023-12-07T11:57:20;100793.42;;;6.96;60.86
76519;BME280;67029;51.054;13.798;2023-12-07T11:59:50;100794.61;;;6.95;60.77
76519;BME280;67029;51.054;13.798;2023-12-07T12:02:20;100802.43;;;6.87;60.94
76519;BME280;67029;51.054;13.798;2023-12-07T12:04:56;100800.17;;;6.90;60.99
76519;BME280;67029;51.054;13.798;2023-12-07T12:07:20;100804.18;;;6.96;60.89
76519;BME280;67029;51.054;13.798;2023-12-07T12:09:50;100801.34;;;6.98;60.84
76519;BME280;67029;51.054;13.798;2023-12-07T12:12:20;100800.70;;;6.99;60.82
76519;BME280;67029;51.054;13.798;2023-12-07T12:14:51;100797.26;;;7.03;60.86
76519;BME280;67029;51.054;13.798;2023-12-07T12:17:21;100798.82;;;7.09;60.76
76519;BME280;67029;51.054;13.798;2023-12-07T12:19:51;100794.67;;;7.14;60.61
76519;BME280;67029;51.054;13.798;2023-12-07T12:22:21;100792.98;;;7.12;60.64
76519;BME280;67029;51.054;13.798;2023-12-07T12:24:51;100797.72;;;7.16;60.62
76519;BME280;67029;51.054;13.798;2023-12-07T12:27:21;100800.27;;;7.22;60.38
76519;BME280;67029;51.054;13.798;2023-12-07T12:29:51;100798.18;;;7.23;60.34
76519;BME280;67029;51.054;13.798;2023-12-07T12:32:22;100794.30;;;7.21;60.42
76519;BME280;67029;51.054;13.798;2023-12-07T12:34:52;100789.28;;;7.22;60.56
76519;BME280;67029;51.054;13.798;2023-12-07T12:37:22;100785.75;;;7.26;60.45
76519;BME280;67029;51.054;13.798;2023-12-07T12:39:53;100784.28;;;7.32;60.38
76519;BME280;67029;51.054;13.798;2023-12-07T12:42:23;100786.50;;;7.35;60.30
76519;BME280;67029;51.054;13.798;2023-12-07T12:44:53;100786.06;;;7.31;60.18
76519;BME280;67029;51.054;13.798;2023-12-07T12:47:24;100782.86;;;7.34;60.50
76519;BME280;67029;51.054;13.798;2023-12-07T12:49:54;100785.88;;;7.56;60.17
76519;BME280;67029;51.054;13.798;2023-12-07T12:52:24;100778.09;;;7.80;59.74
76519;BME280;67029;51.054;13.798;2023-12-07T12:54:58;100777.94;;;8.00;58.97
76519;BME280;67029;51.054;13.798;2023-12-07T12:57:27;100775.66;;;8.18;58.65
76519;BME280;67029;51.054;13.798;2023-12-07T12:59:57;100777.27;;;8.25;58.31
76519;BME280;67029;51.054;13.798;2023-12-07T13:02:26;100775.84;;;8.29;58.08
76519;BME280;67029;51.054;13.798;2023-12-07T13:04:57;100779.03;;;8.27;58.00
76519;BME280;67029;51.054;13.798;2023-12-07T13:07:27;100778.18;;;8.23;58.12
76519;BME280;67029;51.054;13.798;2023-12-07T13:09:57;100779.38;;;8.24;58.19
76519;BME280;67029;51.054;13.798;2023-12-07T13:12:27;100774.47;;;8.23;58.18
76519;BME280;67029;51.054;13.798;2023-12-07T13:14:57;100773.66;;;8.22;58.19
76519;BME280;67029;51.054;13.798;2023-12-07T13:17:27;100774.80;;;8.12;58.29
76519;BME280;67029;51.054;13.798;2023-12-07T13:19:57;100776.08;;;7.95;58.53
76519;BME280;67029;51.054;13.798;2023-12-07T13:22:27;100772.59;;;7.89;58.73
76519;BME280;67029;51.054;13.798;2023-12-07T13:24:57;100774.22;;;7.82;58.88
76519;BME280;67029;51.054;13.798;2023-12-07T13:27:27;100775.47;;;7.78;59.01
76519;BME280;67029;51.054;13.798;2023-12-07T13:29:57;100773.53;;;7.75;59.17